Time;durP1;ratioP1;P1;durP2;ratioP2;P2;SDS_P1;SDS_P2;PMS_P1;PMS_P2;Temp;Humidity;BMP_temperature;BMP_pressure;BME280_temperature;BME280_humidity;BME280_pressure;Samples;Min_cycle;Max_cycle;Signal;HPM_P1;HPM_P2
2024/01/11 00:00:33;;;;;;;27.50;13.18;;;-1.00;89.30;;;;;;5015428;28;20282;-87
2024/01/11 00:03:00;;;;;;;31.95;15.70;;;-1.10;89.00;;;;;;5015162;28;20717;-88
2024/01/11 00:05:27;;;;;;;33.60;16.00;;;-1.10;87.60;;;;;;5015739;28;20369;-87
2024/01/11 00:07:56;;;;;;;30.52;15.07;;;-1.20;88.10;;;;;;5015616;28;20284;-87
2024/01/11 00:10:24;;;;;;;31.85;13.60;;;-1.20;89.00;;;;;;5015916;28;20215;-87
2024/01/11 00:12:50;;;;;;;33.40;14.73;;;-1.10;89.20;;;;;;5016060;28;20279;-87
2024/01/11 00:15:17;;;;;;;31.42;13.93;;;-1.20;89.00;;;;;;5015808;28;20282;-88
2024/01/11 00:17:44;;;;;;;32.60;14.57;;;-1.10;89.70;;;;;;5015751;28;20288;-89
2024/01/11 00:20:12;;;;;;;37.30;15.25;;;-1.10;89.20;;;;;;5015918;28;20199;-88
2024/01/11 00:22:38;;;;;;;39.30;16.15;;;-1.10;89.10;;;;;;5015707;28;20224;-87
2024/01/11 00:25:08;;;;;;;40.80;16.95;;;-1.20;89.10;;;;;;5015878;28;20307;-87
2024/01/11 00:27:35;;;;;;;36.13;15.88;;;-1.20;89.90;;;;;;5015526;28;20611;-87
2024/01/11 00:30:02;;;;;;;36.53;15.98;;;-1.10;90.20;;;;;;5015483;28;20729;-88
2024/01/11 00:32:28;;;;;;;36.53;15.25;;;-1.10;90.20;;;;;;5015936;28;20192;-88
2024/01/11 00:34:55;;;;;;;38.28;16.77;;;-1.10;90.00;;;;;;5015654;28;20227;-87
2024/01/11 00:37:22;;;;;;;30.85;13.38;;;-1.00;90.00;;;;;;5015268;28;20243;-88
2024/01/11 00:39:49;;;;;;;34.95;15.13;;;-1.00;90.00;;;;;;5015635;28;20287;-87
2024/01/11 00:42:17;;;;;;;37.00;15.10;;;-1.00;90.00;;;;;;5015129;28;20235;-87
2024/01/11 00:44:45;;;;;;;38.17;15.15;;;-1.00;90.10;;;;;;5015190;28;20303;-89
2024/01/11 00:47:11;;;;;;;36.65;16.38;;;-1.00;89.90;;;;;;5015356;28;20208;-88
2024/01/11 00:49:38;;;;;;;32.42;15.38;;;-0.90;89.60;;;;;;5015176;28;20230;-87
2024/01/11 00:52:06;;;;;;;36.47;16.00;;;-0.90;89.50;;;;;;5015354;28;20690;-88
2024/01/11 00:54:32;;;;;;;38.70;16.95;;;-0.90;89.60;;;;;;5014975;28;20196;-88
2024/01/11 00:56:59;;;;;;;24.80;13.23;;;-0.90;89.40;;;;;;5015379;28;20274;-88
2024/01/11 00:59:27;;;;;;;32.35;14.07;;;-0.80;89.30;;;;;;5015225;28;20220;-87
2024/01/11 01:01:55;;;;;;;27.80;13.68;;;-0.90;88.80;;;;;;5015182;28;20242;-87
2024/01/11 01:04:21;;;;;;;26.50;13.88;;;-0.90;88.50;;;;;;5014214;28;20740;-87
2024/01/11 01:06:48;;;;;;;30.42;14.98;;;-0.90;88.60;;;;;;5014159;28;20192;-88
2024/01/11 01:09:15;;;;;;;28.08;10.50;;;-0.90;88.70;;;;;;5014752;28;20284;-87
2024/01/11 01:11:42;;;;;;;26.70;12.05;;;-0.90;88.50;;;;;;5015348;28;20712;-87
2024/01/11 01:14:09;;;;;;;31.48;13.35;;;-1.00;88.30;;;;;;5014821;28;20283;-88
2024/01/11 01:16:37;;;;;;;29.23;12.80;;;-0.90;87.80;;;;;;5015214;28;20192;-88
2024/01/11 01:19:04;;;;;;;26.75;13.95;;;-0.90;87.60;;;;;;5014715;28;20238;-88
2024/01/11 01:21:31;;;;;;;30.13;12.25;;;-0.90;86.90;;;;;;5014831;28;20284;-88
2024/01/11 01:23:58;;;;;;;26.13;11.85;;;-0.90;86.00;;;;;;5014853;28;20283;-88
2024/01/11 01:26:25;;;;;;;26.25;10.85;;;-0.90;86.20;;;;;;5014481;28;20299;-88
2024/01/11 01:28:52;;;;;;;23.00;11.90;;;-1.00;85.80;;;;;;5014298;28;20702;-88
2024/01/11 01:31:19;;;;;;;22.63;10.18;;;-1.00;85.80;;;;;;5014653;28;20224;-87
2024/01/11 01:33:47;;;;;;;27.75;11.98;;;-1.00;86.20;;;;;;5014763;28;20246;-88
2024/01/11 01:36:14;;;;;;;21.73;11.27;;;-1.10;86.10;;;;;;5014532;28;20227;-88
2024/01/11 01:38:41;;;;;;;22.20;10.80;;;-1.10;85.80;;;;;;5014781;28;20283;-87
2024/01/11 01:41:07;;;;;;;23.05;10.48;;;-1.00;84.90;;;;;;5014158;28;20227;-87
2024/01/11 01:43:34;;;;;;;27.38;11.80;;;-1.10;84.80;;;;;;5014231;28;20279;-88
2024/01/11 01:46:04;;;;;;;23.40;10.63;;;-1.10;85.20;;;;;;5014492;28;20299;-87
2024/01/11 01:48:31;;;;;;;25.27;11.60;;;-1.20;85.20;;;;;;5014174;28;20235;-88
2024/01/11 01:51:00;;;;;;;24.52;11.43;;;-1.20;85.50;;;;;;5014450;28;20231;-88
2024/01/11 01:53:29;;;;;;;27.33;11.60;;;-1.20;85.70;;;;;;5014401;28;20223;-87
2024/01/11 01:55:56;;;;;;;28.10;11.45;;;-1.30;86.00;;;;;;5013878;28;20655;-88
2024/01/11 01:58:23;;;;;;;24.13;11.80;;;-1.30;86.40;;;;;;5013935;28;20290;-87
2024/01/11 02:00:51;;;;;;;23.55;10.48;;;-1.30;86.60;;;;;;5014329;28;20596;-87
2024/01/11 02:03:19;;;;;;;20.65;12.55;;;-1.30;86.60;;;;;;5006431;28;20234;-87
2024/01/11 02:05:46;;;;;;;23.23;10.40;;;-1.30;86.40;;;;;;5013658;28;20686;-87
2024/01/11 02:08:18;;;;;;;23.45;11.35;;;-1.20;86.70;;;;;;5014082;28;20224;-87
2024/01/11 02:10:46;;;;;;;21.50;10.95;;;-1.20;86.20;;;;;;5013795;28;20222;-87
2024/01/11 02:13:13;;;;;;;25.55;11.52;;;-1.30;86.00;;;;;;5013892;28;20241;-88
2024/01/11 02:15:40;;;;;;;19.58;10.15;;;-1.30;86.50;;;;;;5013670;28;20204;-88
2024/01/11 02:18:07;;;;;;;22.48;11.35;;;-1.30;86.80;;;;;;5013922;28;20226;-87
2024/01/11 02:20:34;;;;;;;25.20;10.80;;;-1.30;86.80;;;;;;5013260;28;20283;-87
2024/01/11 02:23:06;;;;;;;19.27;9.60;;;-1.40;87.50;;;;;;5013862;28;20250;-87
2024/01/11 02:25:35;;;;;;;25.08;10.38;;;-1.40;87.90;;;;;;5013618;28;20320;-89
2024/01/11 02:28:02;;;;;;;23.15;10.27;;;-1.40;87.80;;;;;;5013420;28;20203;-87
2024/01/11 02:30:28;;;;;;;28.83;10.75;;;-1.40;87.80;;;;;;5013799;28;20283;-88
2024/01/11 02:32:57;;;;;;;30.17;11.43;;;-1.30;87.70;;;;;;5013435;28;20227;-87
2024/01/11 02:35:25;;;;;;;25.23;12.18;;;-1.30;87.50;;;;;;5013234;28;20637;-88
2024/01/11 02:37:52;;;;;;;25.58;12.00;;;-1.30;87.50;;;;;;4996185;28;20274;-88
2024/01/11 02:40:20;;;;;;;24.13;11.55;;;-1.20;87.50;;;;;;5013265;28;20717;-87
2024/01/11 02:42:47;;;;;;;24.63;12.18;;;-1.20;87.80;;;;;;5013266;28;20192;-87
2024/01/11 02:45:14;;;;;;;22.73;10.27;;;-1.20;87.90;;;;;;5013565;28;20609;-87
2024/01/11 02:47:41;;;;;;;23.60;10.63;;;-1.20;87.80;;;;;;5013257;28;20740;-87
2024/01/11 02:50:11;;;;;;;28.33;11.10;;;-1.20;87.70;;;;;;5013565;28;20228;-87
2024/01/11 02:52:38;;;;;;;22.52;9.88;;;-1.20;87.10;;;;;;5013357;28;20192;-87
2024/01/11 02:55:06;;;;;;;24.35;10.77;;;-1.20;87.50;;;;;;5013312;28;20292;-87
2024/01/11 02:57:32;;;;;;;22.10;11.63;;;-1.20;87.40;;;;;;5013082;28;20278;-88
2024/01/11 03:00:01;;;;;;;30.13;10.93;;;-1.30;86.90;;;;;;5013739;28;20616;-88
2024/01/11 03:02:28;;;;;;;23.77;10.30;;;-1.40;86.70;;;;;;5013367;28;20282;-88
2024/01/11 03:04:54;;;;;;;28.88;12.45;;;-1.40;87.60;;;;;;5013292;28;20334;-88
2024/01/11 03:07:21;;;;;;;27.38;13.38;;;-1.40;87.70;;;;;;5013301;28;20281;-88
2024/01/11 03:09:48;;;;;;;26.45;10.88;;;-1.30;87.80;;;;;;5013163;28;20275;-88
2024/01/11 03:12:15;;;;;;;24.15;11.20;;;-1.30;87.70;;;;;;5013201;28;20723;-87
2024/01/11 03:14:42;;;;;;;23.70;12.35;;;-1.40;86.80;;;;;;5013083;28;20361;-87
2024/01/11 03:17:10;;;;;;;28.90;11.82;;;-1.50;87.10;;;;;;5012930;28;20236;-87
2024/01/11 03:19:40;;;;;;;25.25;10.82;;;-1.50;88.20;;;;;;5013261;28;20224;-87
2024/01/11 03:22:07;;;;;;;20.70;10.23;;;-1.50;88.80;;;;;;5012938;28;20223;-87
2024/01/11 03:24:34;;;;;;;25.38;10.32;;;-1.50;89.10;;;;;;5013439;28;20547;-87
2024/01/11 03:27:01;;;;;;;23.08;10.05;;;-1.50;89.30;;;;;;5012619;28;20792;-87
2024/01/11 03:29:27;;;;;;;27.92;11.40;;;-1.40;88.30;;;;;;5015434;28;20283;-87
2024/01/11 03:31:57;;;;;;;25.00;12.55;;;-1.50;88.00;;;;;;5017027;28;20196;-88
2024/01/11 03:34:25;;;;;;;23.80;11.10;;;-1.60;87.90;;;;;;5016790;28;20196;-87
2024/01/11 03:36:52;;;;;;;26.48;11.45;;;-1.70;88.10;;;;;;5016760;28;20634;-88
2024/01/11 03:39:19;;;;;;;29.35;11.35;;;-1.70;88.40;;;;;;5016335;28;20279;-88
2024/01/11 03:41:47;;;;;;;28.63;13.52;;;-1.70;89.20;;;;;;5016428;28;20196;-87
2024/01/11 03:44:14;;;;;;;26.20;12.80;;;-1.60;89.70;;;;;;5016695;28;20192;-87
2024/01/11 03:46:41;;;;;;;20.73;10.73;;;-1.60;89.00;;;;;;5016156;28;20307;-87
2024/01/11 03:49:08;;;;;;;23.30;10.60;;;-1.70;89.30;;;;;;5016584;28;20275;-88
2024/01/11 03:51:37;;;;;;;27.65;11.77;;;-1.70;90.10;;;;;;5016090;28;20193;-88
2024/01/11 03:54:04;;;;;;;33.25;12.75;;;-1.70;90.20;;;;;;5016103;28;20287;-87
2024/01/11 03:56:31;;;;;;;21.45;10.48;;;-1.70;90.10;;;;;;5016214;28;20727;-87
2024/01/11 03:58:58;;;;;;;27.60;10.65;;;-1.60;89.80;;;;;;5016135;28;20192;-87
2024/01/11 04:01:24;;;;;;;32.10;13.00;;;-1.60;89.00;;;;;;5016022;28;20691;-87
2024/01/11 04:03:52;;;;;;;29.05;12.02;;;-1.70;88.90;;;;;;5016296;28;20282;-87
2024/01/11 04:06:21;;;;;;;23.27;11.65;;;-1.70;89.50;;;;;;5016193;28;20219;-87
2024/01/11 04:08:49;;;;;;;34.28;12.05;;;-1.70;89.20;;;;;;5015747;28;20712;-88
2024/01/11 04:11:16;;;;;;;24.85;11.90;;;-1.70;90.00;;;;;;5008100;28;20319;-87
2024/01/11 04:13:43;;;;;;;28.75;12.07;;;-1.60;90.00;;;;;;5016021;28;20608;-87
2024/01/11 04:16:10;;;;;;;29.35;11.63;;;-1.70;88.90;;;;;;5016216;28;20307;-87
2024/01/11 04:18:37;;;;;;;29.55;11.85;;;-1.70;88.90;;;;;;5015679;28;20287;-87
2024/01/11 04:21:04;;;;;;;24.60;10.57;;;-1.70;89.00;;;;;;5016048;28;20287;-88
2024/01/11 04:23:31;;;;;;;24.70;11.30;;;-1.70;89.20;;;;;;5015685;28;20291;-88
2024/01/11 04:26:00;;;;;;;22.20;10.05;;;-1.70;88.80;;;;;;5015347;28;20319;-87
2024/01/11 04:28:28;;;;;;;30.75;12.73;;;-1.80;88.40;;;;;;5015944;28;20192;-88
2024/01/11 04:30:54;;;;;;;27.23;12.05;;;-1.80;89.00;;;;;;5015799;28;20246;-88
2024/01/11 04:33:21;;;;;;;27.55;12.45;;;-1.80;89.40;;;;;;5015563;28;20287;-87
2024/01/11 04:35:48;;;;;;;32.08;12.52;;;-1.70;88.50;;;;;;5015758;28;20290;-87
2024/01/11 04:38:15;;;;;;;30.98;12.15;;;-1.70;88.60;;;;;;5015800;28;20279;-87
2024/01/11 04:40:42;;;;;;;27.25;12.73;;;-1.70;89.40;;;;;;5015452;28;20284;-88
2024/01/11 04:43:13;;;;;;;27.48;11.57;;;-1.70;89.80;;;;;;5015142;28;20279;-87
2024/01/11 04:45:40;;;;;;;24.80;11.50;;;-1.70;89.00;;;;;;5015618;28;20295;-88
2024/01/11 04:48:07;;;;;;;24.45;11.07;;;-1.70;88.90;;;;;;5015521;28;20275;-88
2024/01/11 04:50:34;;;;;;;30.42;12.63;;;-1.70;89.20;;;;;;5015409;28;20384;-87
2024/01/11 04:53:00;;;;;;;29.80;12.55;;;-1.60;89.60;;;;;;5015285;28;20283;-88
2024/01/11 04:55:27;;;;;;;31.85;12.30;;;-1.60;89.70;;;;;;5015290;28;20287;-88
2024/01/11 04:57:54;;;;;;;33.67;13.55;;;-1.60;89.00;;;;;;5015265;28;20283;-87
2024/01/11 05:00:22;;;;;;;34.55;13.63;;;-1.60;89.30;;;;;;5014971;28;20279;-87
2024/01/11 05:02:49;;;;;;;34.97;11.45;;;-1.60;89.30;;;;;;5014939;28;20193;-88
2024/01/11 05:05:16;;;;;;;29.45;12.90;;;-1.50;89.30;;;;;;5014801;28;20371;-87
2024/01/11 05:07:43;;;;;;;35.50;15.18;;;-1.50;88.80;;;;;;5014736;28;20710;-87
2024/01/11 05:10:10;;;;;;;29.98;12.27;;;-1.50;88.10;;;;;;5014536;28;20324;-88
2024/01/11 05:12:38;;;;;;;27.55;12.05;;;-1.60;87.90;;;;;;5015439;28;20272;-85
2024/01/11 05:15:07;;;;;;;25.02;11.20;;;-1.50;88.00;;;;;;5015965;28;20564;-88
2024/01/11 05:17:36;;;;;;;31.13;13.50;;;-1.50;88.00;;;;;;5014879;28;20196;-87
2024/01/11 05:20:05;;;;;;;38.08;12.65;;;-1.40;88.10;;;;;;5014353;28;20196;-88
2024/01/11 05:22:32;;;;;;;30.30;12.02;;;-1.40;88.00;;;;;;5014824;28;20192;-87
2024/01/11 05:24:59;;;;;;;33.35;13.70;;;-1.40;87.90;;;;;;5014433;28;20246;-88
2024/01/11 05:27:26;;;;;;;34.30;13.55;;;-1.40;87.90;;;;;;5014793;28;20303;-88
2024/01/11 05:29:55;;;;;;;27.27;12.50;;;-1.40;87.90;;;;;;5014615;28;20283;-88
2024/01/11 05:32:22;;;;;;;26.80;11.65;;;-1.30;87.90;;;;;;5014884;28;20196;-87
2024/01/11 05:34:50;;;;;;;30.83;13.10;;;-1.30;87.90;;;;;;5014533;28;20200;-88
2024/01/11 05:37:17;;;;;;;29.70;13.43;;;-1.30;87.90;;;;;;5014295;28;20730;-87
2024/01/11 05:39:47;;;;;;;31.50;12.90;;;-1.30;87.70;;;;;;5014236;28;20626;-87
2024/01/11 05:42:14;;;;;;;31.45;14.65;;;-1.30;87.50;;;;;;5015591;28;20568;-88
2024/01/11 05:44:41;;;;;;;27.27;11.95;;;-1.30;87.30;;;;;;5014217;28;20227;-87
2024/01/11 05:47:08;;;;;;;28.55;12.38;;;-1.30;87.10;;;;;;5013810;28;20216;-87
2024/01/11 05:49:34;;;;;;;29.23;13.82;;;-1.30;86.90;;;;;;5014212;28;20283;-88
2024/01/11 05:52:03;;;;;;;31.90;12.18;;;-1.30;86.90;;;;;;5013720;28;20260;-87
2024/01/11 05:54:30;;;;;;;26.58;11.43;;;-1.30;86.70;;;;;;5014124;28;20279;-87
2024/01/11 05:56:58;;;;;;;22.92;10.85;;;-1.30;86.70;;;;;;5013757;28;20242;-88
2024/01/11 05:59:26;;;;;;;27.33;12.20;;;-1.30;86.60;;;;;;5014150;28;20255;-87
2024/01/11 06:01:52;;;;;;;25.10;11.20;;;-1.30;86.20;;;;;;5014081;28;20262;-88
2024/01/11 06:04:19;;;;;;;28.95;12.05;;;-1.30;86.10;;;;;;5013760;28;20192;-87
2024/01/11 06:06:46;;;;;;;21.02;10.75;;;-1.40;85.40;;;;;;5014243;28;20632;-87
2024/01/11 06:09:14;;;;;;;30.83;15.82;;;-1.40;85.80;;;;;;5013565;28;20279;-88
2024/01/11 06:11:41;;;;;;;29.20;13.45;;;-1.40;86.80;;;;;;5013853;28;20263;-87
2024/01/11 06:14:08;;;;;;;26.55;12.60;;;-1.40;86.00;;;;;;5013917;28;20228;-87
2024/01/11 06:16:35;;;;;;;30.33;14.25;;;-1.30;86.20;;;;;;5011358;28;20320;-89
2024/01/11 06:19:02;;;;;;;40.85;13.70;;;-1.30;86.10;;;;;;5013858;28;20602;-88
2024/01/11 06:21:29;;;;;;;25.42;11.35;;;-1.30;86.20;;;;;;5013861;28;20615;-88
2024/01/11 06:23:56;;;;;;;23.27;12.15;;;-1.30;86.10;;;;;;5013795;28;20283;-88
2024/01/11 06:26:24;;;;;;;26.42;12.40;;;-1.40;85.90;;;;;;5012889;28;20232;-88
2024/01/11 06:28:51;;;;;;;24.10;10.90;;;-1.40;86.00;;;;;;5013459;28;20236;-88
2024/01/11 06:31:18;;;;;;;28.67;12.73;;;-1.40;85.80;;;;;;5013839;28;20230;-88
2024/01/11 06:33:45;;;;;;;27.52;11.88;;;-1.40;85.60;;;;;;5013118;28;20188;-88
2024/01/11 06:36:11;;;;;;;26.77;14.23;;;-1.40;85.30;;;;;;5013297;28;20286;-88
2024/01/11 06:38:38;;;;;;;21.92;12.68;;;-1.40;85.70;;;;;;5013333;28;20228;-88
2024/01/11 06:41:05;;;;;;;26.30;11.40;;;-1.40;85.80;;;;;;5013615;28;20196;-88
2024/01/11 06:43:34;;;;;;;27.50;11.50;;;-1.40;85.50;;;;;;5013420;28;20689;-88
2024/01/11 06:46:04;;;;;;;25.98;11.15;;;-1.40;85.00;;;;;;5013722;28;20228;-88
2024/01/11 06:48:31;;;;;;;28.05;13.10;;;-1.40;84.70;;;;;;5013426;28;20271;-90
2024/01/11 06:50:58;;;;;;;20.63;9.68;;;-1.40;84.60;;;;;;5013224;28;20287;-89
2024/01/11 06:53:24;;;;;;;28.95;13.07;;;-1.40;84.50;;;;;;5013383;28;20721;-89
2024/01/11 06:55:53;;;;;;;26.05;12.90;;;-1.40;84.30;;;;;;5012341;28;20220;-88
2024/01/11 06:58:22;;;;;;;25.25;12.80;;;-1.50;84.00;;;;;;5013373;28;20226;-88
2024/01/11 07:00:50;;;;;;;23.70;11.35;;;-1.50;84.40;;;;;;5013225;28;20188;-88
2024/01/11 07:03:18;;;;;;;35.78;12.25;;;-1.50;84.20;;;;;;5015923;28;20286;-88
2024/01/11 07:05:45;;;;;;;25.80;11.95;;;-1.50;84.20;;;;;;5017129;28;20206;-88
2024/01/11 07:08:12;;;;;;;25.65;10.63;;;-1.50;83.90;;;;;;5017417;28;20302;-88
2024/01/11 07:10:39;;;;;;;27.38;11.75;;;-1.50;83.50;;;;;;5017180;28;20310;-88
2024/01/11 07:13:06;;;;;;;29.23;14.95;;;-1.60;84.00;;;;;;5015780;28;20279;-89
2024/01/11 07:15:33;;;;;;;34.63;15.80;;;-1.60;84.50;;;;;;5016375;28;20188;-88
2024/01/11 07:18:02;;;;;;;35.33;15.48;;;-1.70;84.60;;;;;;5008560;28;20231;-89
2024/01/11 07:20:29;;;;;;;28.77;13.70;;;-1.60;85.00;;;;;;5005502;28;20196;-88
2024/01/11 07:22:56;;;;;;;31.77;13.73;;;-1.60;84.90;;;;;;5011412;28;20283;-89
2024/01/11 07:25:23;;;;;;;26.27;11.15;;;-1.60;85.00;;;;;;5011196;28;20376;-88
2024/01/11 07:27:50;;;;;;;26.92;11.52;;;-1.60;84.90;;;;;;5013685;28;20227;-88
2024/01/11 07:30:19;;;;;;;36.00;13.55;;;-1.50;84.70;;;;;;5011072;28;20408;-88
2024/01/11 07:32:46;;;;;;;22.63;10.75;;;-1.50;84.60;;;;;;5012870;28;20184;-87
2024/01/11 07:35:15;;;;;;;29.33;13.20;;;-1.50;84.50;;;;;;5017265;28;20237;-89
2024/01/11 07:37:42;;;;;;;22.30;10.68;;;-1.50;84.20;;;;;;5013988;28;20187;-88
2024/01/11 07:40:10;;;;;;;27.05;15.45;;;-1.50;84.50;;;;;;5011692;28;20279;-88
2024/01/11 07:42:38;;;;;;;26.60;11.38;;;-1.50;84.10;;;;;;5012223;28;20200;-89
2024/01/11 07:45:06;;;;;;;26.60;11.00;;;-1.50;83.70;;;;;;5010617;28;20721;-89
2024/01/11 07:47:33;;;;;;;37.20;11.90;;;-1.50;83.70;;;;;;5012732;28;20222;-88
2024/01/11 07:50:00;;;;;;;27.13;12.23;;;-1.50;83.60;;;;;;5015902;28;20279;-88
2024/01/11 07:52:29;;;;;;;24.83;11.20;;;-1.50;83.40;;;;;;5015133;28;20667;-88
2024/01/11 07:54:57;;;;;;;28.80;13.02;;;-1.50;83.20;;;;;;5015893;28;20286;-87
2024/01/11 07:57:24;;;;;;;28.85;13.45;;;-1.60;84.20;;;;;;5015644;28;20196;-88
2024/01/11 07:59:51;;;;;;;26.77;11.23;;;-1.60;83.40;;;;;;5015994;28;20287;-88
2024/01/11 08:02:17;;;;;;;31.40;12.38;;;-1.60;83.50;;;;;;5015937;28;20706;-88
2024/01/11 08:04:44;;;;;;;32.25;15.45;;;-1.60;83.40;;;;;;5016128;28;20604;-88
2024/01/11 08:07:11;;;;;;;26.85;13.02;;;-1.60;83.80;;;;;;5016155;28;20303;-88
2024/01/11 08:09:44;;;;;;;24.00;11.38;;;-1.50;83.90;;;;;;5015877;28;20192;-88
2024/01/11 08:12:12;;;;;;;28.05;11.95;;;-1.50;83.90;;;;;;5016298;28;20203;-88
2024/01/11 08:14:38;;;;;;;26.95;11.80;;;-1.40;83.40;;;;;;5015370;28;20199;-88
2024/01/11 08:17:05;;;;;;;26.70;10.40;;;-1.40;82.90;;;;;;5015632;28;20658;-88
2024/01/11 08:19:33;;;;;;;23.65;11.63;;;-1.30;83.10;;;;;;5015623;28;20473;-89
2024/01/11 08:22:00;;;;;;;28.88;14.60;;;-1.30;82.70;;;;;;5015866;28;20188;-88
2024/01/11 08:24:26;;;;;;;30.13;14.23;;;-1.30;82.60;;;;;;5015781;28;20282;-90
2024/01/11 08:26:55;;;;;;;29.58;12.50;;;-1.20;82.20;;;;;;5015374;28;20303;-88
2024/01/11 08:29:22;;;;;;;26.23;12.82;;;-1.30;81.60;;;;;;5015354;28;20200;-88
2024/01/11 08:31:49;;;;;;;26.30;11.73;;;-1.20;81.50;;;;;;5015697;28;20558;-88
2024/01/11 08:34:16;;;;;;;22.95;11.63;;;-1.20;81.30;;;;;;5015628;28;20220;-88
2024/01/11 08:36:43;;;;;;;23.10;13.00;;;-1.20;81.40;;;;;;5015603;28;20282;-88
2024/01/11 08:39:11;;;;;;;27.95;10.65;;;-1.20;81.40;;;;;;5015604;28;20231;-89
2024/01/11 08:41:38;;;;;;;29.08;12.18;;;-1.10;81.60;;;;;;5015657;28;20550;-88
2024/01/11 08:44:06;;;;;;;30.92;13.32;;;-1.10;81.50;;;;;;5015458;28;20202;-89
2024/01/11 08:46:34;;;;;;;26.65;12.65;;;-1.10;80.60;;;;;;5014793;28;20239;-89
2024/01/11 08:49:03;;;;;;;31.13;11.88;;;-1.00;80.60;;;;;;5015084;28;20288;-89
2024/01/11 08:51:30;;;;;;;25.38;10.65;;;-1.00;80.50;;;;;;5015033;28;20196;-89
2024/01/11 08:53:57;;;;;;;19.65;10.73;;;-0.90;79.60;;;;;;5014982;28;20283;-89
2024/01/11 08:56:24;;;;;;;20.30;10.07;;;-1.00;78.40;;;;;;5015380;28;20235;-88
2024/01/11 08:58:51;;;;;;;27.92;12.25;;;-1.00;78.50;;;;;;5014862;28;20717;-88
2024/01/11 09:01:19;;;;;;;25.33;11.68;;;-1.10;78.70;;;;;;5014885;28;20279;-88
2024/01/11 09:03:47;;;;;;;29.13;12.43;;;-1.10;78.90;;;;;;5014732;28;20192;-86
2024/01/11 09:06:14;;;;;;;25.73;11.57;;;-1.20;78.60;;;;;;5014707;28;20669;-88
2024/01/11 09:08:42;;;;;;;24.13;10.15;;;-1.10;79.10;;;;;;5014751;28;20726;-87
2024/01/11 09:11:10;;;;;;;21.35;10.80;;;-1.10;79.10;;;;;;5014549;28;20224;-86
2024/01/11 09:13:37;;;;;;;26.75;10.32;;;-1.10;79.10;;;;;;5014764;28;20287;-87
2024/01/11 09:16:06;;;;;;;24.40;12.95;;;-1.00;79.10;;;;;;5014838;28;20282;-88
2024/01/11 09:18:35;;;;;;;31.77;12.65;;;-0.90;79.10;;;;;;5014464;28;20200;-89
2024/01/11 09:21:03;;;;;;;34.75;12.57;;;-0.90;79.10;;;;;;5014610;28;20259;-88
2024/01/11 09:23:30;;;;;;;27.75;15.10;;;-0.90;79.20;;;;;;5014725;28;20199;-88
2024/01/11 09:25:57;;;;;;;26.63;12.50;;;-0.80;79.20;;;;;;5013692;28;20287;-88
2024/01/11 09:28:24;;;;;;;25.85;12.10;;;-0.70;79.00;;;;;;5014265;28;20306;-88
2024/01/11 09:30:51;;;;;;;25.40;11.77;;;-0.70;78.80;;;;;;5014485;28;20228;-88
2024/01/11 09:33:18;;;;;;;22.75;11.60;;;-0.70;78.70;;;;;;5014491;28;20279;-88
2024/01/11 09:35:46;;;;;;;26.15;12.30;;;-0.70;78.20;;;;;;5014488;28;20608;-88
2024/01/11 09:38:13;;;;;;;28.58;13.07;;;-0.60;78.40;;;;;;5014365;28;20243;-88
2024/01/11 09:40:40;;;;;;;24.10;12.02;;;-0.60;78.30;;;;;;5014106;28;20280;-89
2024/01/11 09:43:10;;;;;;;25.25;10.65;;;-0.50;78.20;;;;;;5014048;28;20706;-88
2024/01/11 09:45:38;;;;;;;21.50;10.55;;;-0.40;78.30;;;;;;5014244;28;20220;-89
2024/01/11 09:48:15;;;;;;;19.95;10.30;;;-0.40;78.00;;;;;;5066951;28;20533;-89
2024/01/11 09:50:42;;;;;;;26.05;10.82;;;-0.30;77.50;;;;;;5066862;28;20281;-89
2024/01/11 09:53:10;;;;;;;24.30;11.30;;;-0.30;76.90;;;;;;5066765;28;20277;-89
2024/01/11 09:55:37;;;;;;;26.67;11.55;;;-0.30;76.80;;;;;;5066831;28;20281;-88
2024/01/11 09:58:05;;;;;;;21.95;10.07;;;-0.20;76.40;;;;;;5066792;28;20194;-89
2024/01/11 10:00:32;;;;;;;28.60;12.82;;;-0.10;75.40;;;;;;5066672;28;20281;-89
2024/01/11 10:02:59;;;;;;;22.38;11.07;;;-0.20;74.80;;;;;;5066915;28;20233;-89
2024/01/11 10:05:30;;;;;;;40.50;14.88;;;-0.10;75.10;;;;;;5066776;27;20286;-88
2024/01/11 10:07:57;;;;;;;26.08;11.43;;;0.00;75.40;;;;;;5066584;28;20228;-89
2024/01/11 10:10:24;;;;;;;22.65;11.77;;;0.00;74.20;;;;;;5066786;28;20277;-89
2024/01/11 10:12:51;;;;;;;28.73;13.70;;;0.00;73.20;;;;;;5066908;28;20282;-89
2024/01/11 10:15:17;;;;;;;32.75;13.15;;;0.10;72.80;;;;;;5066449;28;20711;-89
2024/01/11 10:17:45;;;;;;;25.05;11.65;;;0.00;73.00;;;;;;5066452;28;20284;-89
2024/01/11 10:20:13;;;;;;;27.17;14.88;;;0.10;73.70;;;;;;5066785;28;20555;-88
2024/01/11 10:22:42;;;;;;;23.58;12.57;;;0.10;73.80;;;;;;5066741;28;20187;-87
2024/01/11 10:25:11;;;;;;;26.70;12.70;;;0.10;73.70;;;;;;5066248;28;20655;-89
2024/01/11 10:27:38;;;;;;;28.42;13.15;;;0.10;73.60;;;;;;5066298;28;20761;-88
2024/01/11 10:30:07;;;;;;;25.13;11.05;;;0.10;73.30;;;;;;5066294;28;20671;-89
2024/01/11 10:32:35;;;;;;;28.15;12.98;;;0.10;73.10;;;;;;5066306;27;20277;-89
2024/01/11 10:35:04;;;;;;;25.50;12.27;;;0.10;72.40;;;;;;5066175;28;20212;-89
2024/01/11 10:37:32;;;;;;;29.48;12.82;;;0.10;71.10;;;;;;5066816;27;20198;-89
2024/01/11 10:40:08;;;;;;;23.63;12.77;;;0.10;71.40;;;;;;5066391;28;20544;-89
2024/01/11 10:42:38;;;;;;;27.48;13.70;;;0.10;72.00;;;;;;5066902;27;20217;-89
2024/01/11 10:45:14;;;;;;;20.88;11.98;;;0.20;73.00;;;;;;5066817;28;20199;-89
2024/01/11 10:47:48;;;;;;;22.83;11.38;;;0.20;72.00;;;;;;5066576;27;20244;-89
2024/01/11 10:50:17;;;;;;;25.58;10.82;;;0.30;71.60;;;;;;5066438;28;20363;-89
2024/01/11 10:52:55;;;;;;;22.98;10.38;;;0.30;70.70;;;;;;5066536;27;20666;-89
2024/01/11 10:55:25;;;;;;;20.75;10.18;;;0.30;70.90;;;;;;5065880;28;20210;-89
2024/01/11 10:57:54;;;;;;;20.20;10.43;;;0.20;70.50;;;;;;5062153;28;20237;-89
2024/01/11 11:00:22;;;;;;;26.63;11.70;;;0.20;70.30;;;;;;5052449;28;20190;-89
2024/01/11 11:02:50;;;;;;;23.65;12.18;;;0.20;69.70;;;;;;5052687;28;20515;-88
2024/01/11 11:05:19;;;;;;;23.08;10.57;;;0.10;70.30;;;;;;5052653;28;20190;-89
2024/01/11 11:07:48;;;;;;;22.55;10.07;;;0.00;70.20;;;;;;5052331;28;20218;-89
2024/01/11 11:10:16;;;;;;;29.65;12.00;;;0.10;71.30;;;;;;5052511;28;20226;-89
2024/01/11 11:12:46;;;;;;;17.75;9.00;;;0.20;71.80;;;;;;5130121;27;20295;-89
2024/01/11 11:15:13;;;;;;;20.33;9.57;;;0.20;71.70;;;;;;5116351;27;20318;-89
2024/01/11 11:17:41;;;;;;;17.98;8.93;;;0.30;72.50;;;;;;5073106;27;20273;-89
2024/01/11 11:20:11;;;;;;;19.40;9.82;;;0.30;72.40;;;;;;5047573;27;20709;-89
2024/01/11 11:22:40;;;;;;;23.95;11.00;;;0.40;72.00;;;;;;5051618;27;20521;-89
2024/01/11 11:25:10;;;;;;;21.40;11.00;;;0.50;71.80;;;;;;5047630;27;20229;-89
2024/01/11 11:27:37;;;;;;;21.27;10.55;;;0.50;71.60;;;;;;5051092;27;20237;-89
2024/01/11 11:30:10;;;;;;;26.45;12.00;;;0.50;71.10;;;;;;5051173;27;20199;-89
2024/01/11 11:32:38;;;;;;;19.65;10.32;;;0.50;70.80;;;;;;5051686;27;20600;-89
2024/01/11 11:35:08;;;;;;;19.15;10.07;;;0.50;70.50;;;;;;5051449;27;20202;-90
2024/01/11 11:37:37;;;;;;;22.60;9.82;;;0.50;70.70;;;;;;5050981;27;20195;-90
2024/01/11 11:40:05;;;;;;;22.00;10.07;;;0.50;70.50;;;;;;5050937;27;20645;-89
2024/01/11 11:42:35;;;;;;;22.25;10.90;;;0.50;70.50;;;;;;5072708;27;20226;-89
2024/01/11 11:45:01;;;;;;;30.67;15.02;;;0.50;70.20;;;;;;5051095;27;20269;-89
2024/01/11 11:47:37;;;;;;;23.73;11.63;;;0.50;69.90;;;;;;5051103;27;20326;-89
2024/01/11 11:50:09;;;;;;;18.27;10.30;;;0.60;69.50;;;;;;5050783;27;20278;-89
2024/01/11 11:52:37;;;;;;;19.40;10.95;;;0.60;69.80;;;;;;5071034;27;20199;-89
2024/01/11 11:55:06;;;;;;;22.38;10.60;;;0.50;69.30;;;;;;5051242;27;20250;-89
2024/01/11 11:57:33;;;;;;;16.35;8.40;;;0.50;69.60;;;;;;5050857;27;20277;-90
2024/01/11 12:00:05;;;;;;;21.65;10.80;;;0.50;69.20;;;;;;5051278;27;20643;-89
2024/01/11 12:02:35;;;;;;;21.80;10.80;;;0.50;69.50;;;;;;5050496;27;20191;-90
2024/01/11 12:05:03;;;;;;;14.63;7.82;;;0.50;69.40;;;;;;5051226;27;20247;-89
2024/01/11 12:07:30;;;;;;;17.05;8.38;;;0.50;69.20;;;;;;5050881;27;20215;-89
2024/01/11 12:09:57;;;;;;;15.55;9.52;;;0.60;69.20;;;;;;5049657;27;20228;-90
2024/01/11 12:12:24;;;;;;;20.23;10.32;;;0.60;69.70;;;;;;5067942;28;20226;-89
2024/01/11 12:14:52;;;;;;;27.30;12.05;;;0.60;69.80;;;;;;5051554;28;20632;-89
2024/01/11 12:17:19;;;;;;;20.58;9.27;;;0.60;70.20;;;;;;5052124;27;20359;-89
2024/01/11 12:19:48;;;;;;;17.38;8.90;;;0.70;70.30;;;;;;5051101;28;20751;-90
2024/01/11 12:22:15;;;;;;;20.52;9.73;;;0.70;70.30;;;;;;5051479;28;20190;-90
2024/01/11 12:24:42;;;;;;;22.00;10.43;;;0.70;70.20;;;;;;5031313;28;20192;-90
2024/01/11 12:27:09;;;;;;;18.85;10.55;;;0.70;69.70;;;;;;5031410;28;20211;-90
2024/01/11 12:29:36;;;;;;;20.73;11.55;;;0.70;69.90;;;;;;5058976;27;20221;-87